createdAt,value
2018-10-19T00:01:23.740Z,101103.00
2018-10-19T00:03:52.083Z,101089.00
2018-10-19T00:06:20.350Z,101095.00
2018-10-19T00:08:48.615Z,101070.00
2018-10-19T00:11:17.700Z,101102.00
2018-10-19T00:13:46.012Z,101093.00
2018-10-19T00:16:14.462Z,101088.00
2018-10-19T00:18:42.862Z,101095.00
2018-10-19T00:21:11.152Z,101089.00
2018-10-19T00:23:39.233Z,101092.00
2018-10-19T00:26:07.470Z,101099.00
2018-10-19T00:28:35.717Z,101101.00
2018-10-19T00:31:03.888Z,101091.00
2018-10-19T00:33:32.120Z,101091.00
2018-10-19T00:36:00.420Z,101095.00
2018-10-19T00:38:28.649Z,101099.00
2018-10-19T00:40:56.852Z,101103.00
2018-10-19T00:43:25.105Z,101102.00
2018-10-19T00:45:53.344Z,101095.00
2018-10-19T00:48:21.658Z,101099.00
2018-10-19T00:50:49.928Z,101093.00
2018-10-19T00:53:18.103Z,101101.00
2018-10-19T00:55:46.899Z,101094.00
2018-10-19T00:58:15.358Z,101094.00
2018-10-19T01:00:43.563Z,101099.00
2018-10-19T01:03:11.930Z,101087.00
2018-10-19T01:05:40.452Z,101092.00
2018-10-19T01:08:09.281Z,101006.00
2018-10-19T01:10:37.448Z,101103.00
2018-10-19T01:13:05.882Z,101091.00
2018-10-19T01:15:33.942Z,101086.00
2018-10-19T01:18:02.704Z,101086.00
2018-10-19T01:20:30.853Z,101093.00
2018-10-19T01:22:59.320Z,101080.00
2018-10-19T01:25:27.982Z,101082.00
2018-10-19T01:27:56.228Z,101083.00
2018-10-19T01:30:24.492Z,101087.00
2018-10-19T01:32:52.804Z,101090.00
2018-10-19T01:35:20.945Z,101094.00
2018-10-19T01:37:49.317Z,101083.00
2018-10-19T01:40:17.812Z,101089.00
2018-10-19T01:42:45.882Z,101091.00
2018-10-19T01:45:14.023Z,101090.00
2018-10-19T01:47:42.500Z,101089.00
2018-10-19T01:50:14.096Z,101085.00
2018-10-19T01:52:42.240Z,101085.00
2018-10-19T01:55:10.544Z,101089.00
2018-10-19T01:57:38.928Z,101086.00
2018-10-19T02:00:07.226Z,101090.00
2018-10-19T02:02:35.393Z,101084.00
2018-10-19T02:05:03.786Z,101083.00
2018-10-19T02:07:31.930Z,101090.00
2018-10-19T02:10:00.153Z,101092.00
2018-10-19T02:12:28.473Z,101090.00
2018-10-19T02:14:56.837Z,101078.00
2018-10-19T02:17:25.031Z,101087.00
2018-10-19T02:19:53.568Z,101094.00
2018-10-19T02:22:21.797Z,101092.00
2018-10-19T02:24:49.953Z,101090.00
2018-10-19T02:27:18.183Z,101099.00
2018-10-19T02:29:46.358Z,101101.00
2018-10-19T02:32:14.634Z,101107.00
2018-10-19T02:34:42.798Z,101103.00
2018-10-19T02:37:10.952Z,101105.00
2018-10-19T02:39:39.207Z,101104.00
2018-10-19T02:42:07.547Z,101103.00
2018-10-19T02:44:35.742Z,101100.00
2018-10-19T02:47:04.201Z,101104.00
2018-10-19T02:49:32.374Z,101099.00
2018-10-19T02:52:00.474Z,101106.00
2018-10-19T02:54:28.700Z,101096.00
2018-10-19T02:56:57.510Z,101089.00
2018-10-19T02:59:26.334Z,101096.00
2018-10-19T03:01:54.700Z,101090.00
2018-10-19T03:04:23.133Z,101100.00
2018-10-19T03:06:51.346Z,101093.00
2018-10-19T03:09:19.531Z,101100.00
2018-10-19T03:11:47.718Z,101090.00
2018-10-19T03:14:15.868Z,101088.00
2018-10-19T03:16:44.265Z,101092.00
2018-10-19T03:19:12.485Z,101099.00
2018-10-19T03:21:40.789Z,101095.00
2018-10-19T03:24:08.996Z,101096.00
2018-10-19T03:26:37.163Z,101104.00
2018-10-19T03:29:05.520Z,101101.00
2018-10-19T03:31:33.724Z,101101.00
2018-10-19T03:34:02.067Z,101100.00
2018-10-19T03:36:30.342Z,101103.00
2018-10-19T03:38:58.852Z,101091.00
2018-10-19T03:41:27.041Z,101095.00
2018-10-19T03:43:55.222Z,101111.00
2018-10-19T03:46:23.506Z,101103.00
2018-10-19T03:48:51.814Z,101100.00
2018-10-19T03:51:20.063Z,101084.00
2018-10-19T03:53:48.202Z,101101.00
2018-10-19T03:56:16.371Z,101102.00
2018-10-19T03:58:44.685Z,101102.00
2018-10-19T04:01:12.892Z,101101.00
2018-10-19T04:03:41.258Z,101099.00
2018-10-19T04:06:09.336Z,101114.00
2018-10-19T04:08:37.374Z,101114.00
2018-10-19T04:11:05.717Z,101104.00
2018-10-19T04:13:33.856Z,101117.00
2018-10-19T04:16:02.374Z,101121.00
2018-10-19T04:18:30.603Z,101122.00
2018-10-19T04:20:58.875Z,101116.00
2018-10-19T04:23:27.055Z,101124.00
2018-10-19T04:25:55.314Z,101124.00
2018-10-19T04:28:23.478Z,101121.00
2018-10-19T04:30:51.695Z,101122.00
2018-10-19T04:33:19.876Z,101129.00
2018-10-19T04:35:48.005Z,101122.00
2018-10-19T04:38:16.381Z,101116.00
2018-10-19T04:40:44.968Z,101112.00
2018-10-19T04:43:13.262Z,101121.00
2018-10-19T04:45:41.836Z,101108.00
2018-10-19T04:48:10.485Z,101116.00
2018-10-19T04:50:38.783Z,101120.00
2018-10-19T04:53:08.523Z,101122.00
2018-10-19T04:55:36.971Z,101116.00
2018-10-19T04:58:05.413Z,101116.00
2018-10-19T05:00:33.832Z,101123.00
2018-10-19T05:03:02.308Z,101116.00
2018-10-19T05:05:30.508Z,101125.00
2018-10-19T05:07:58.572Z,101105.00
2018-10-19T05:10:26.550Z,101132.00
2018-10-19T05:12:54.728Z,101122.00
2018-10-19T05:15:22.945Z,101133.00
2018-10-19T05:17:51.174Z,101130.00
2018-10-19T05:20:19.453Z,101124.00
2018-10-19T05:22:47.570Z,101128.00
2018-10-19T05:25:16.009Z,101135.00
2018-10-19T05:27:44.163Z,101133.00
2018-10-19T05:30:13.057Z,101127.00
2018-10-19T05:32:42.358Z,101124.00
2018-10-19T05:35:10.799Z,101122.00
2018-10-19T05:37:40.044Z,101126.00
2018-10-19T05:40:11.275Z,101127.00
2018-10-19T05:42:40.073Z,101130.00
2018-10-19T05:45:11.259Z,101135.00
2018-10-19T05:47:39.906Z,101142.00
2018-10-19T05:50:09.933Z,101143.00
2018-10-19T05:52:38.333Z,101135.00
2018-10-19T05:55:07.015Z,101143.00
2018-10-19T05:57:35.520Z,101144.00
2018-10-19T06:00:04.406Z,101145.00
2018-10-19T06:02:32.746Z,101148.00
2018-10-19T06:05:01.345Z,101152.00
2018-10-19T06:07:29.600Z,101150.00
2018-10-19T06:09:58.131Z,101156.00
2018-10-19T06:12:26.351Z,101155.00
2018-10-19T06:14:55.047Z,101157.00
2018-10-19T06:17:23.493Z,101150.00
2018-10-19T06:19:52.233Z,101163.00
2018-10-19T06:22:20.444Z,101161.00
2018-10-19T06:24:48.603Z,101167.00
2018-10-19T06:27:17.962Z,101165.00
2018-10-19T06:29:46.167Z,101170.00
2018-10-19T06:32:17.010Z,101164.00
2018-10-19T06:34:45.286Z,101174.00
2018-10-19T06:37:13.578Z,101168.00
2018-10-19T06:39:41.736Z,101168.00
2018-10-19T06:42:09.984Z,101169.00
2018-10-19T06:44:38.199Z,101169.00
2018-10-19T06:47:07.193Z,101165.00
2018-10-19T06:49:35.205Z,101169.00
2018-10-19T06:52:03.443Z,101171.00
2018-10-19T06:54:31.617Z,101174.00
2018-10-19T06:56:59.826Z,101169.00
2018-10-19T06:59:28.169Z,101171.00
2018-10-19T07:01:56.457Z,101163.00
2018-10-19T07:04:24.663Z,101176.00
2018-10-19T07:06:52.817Z,101174.00
2018-10-19T07:09:21.257Z,101176.00
2018-10-19T07:11:49.440Z,101182.00
2018-10-19T07:14:18.432Z,101188.00
2018-10-19T07:16:46.483Z,101188.00
2018-10-19T07:19:14.709Z,101180.00
2018-10-19T07:21:42.985Z,101184.00
2018-10-19T07:24:11.128Z,101184.00
2018-10-19T07:26:39.385Z,101186.00
2018-10-19T07:29:07.650Z,101193.00
2018-10-19T07:31:35.853Z,101199.00
2018-10-19T07:34:04.946Z,101198.00
2018-10-19T07:36:33.546Z,101199.00
2018-10-19T07:39:01.741Z,101199.00
2018-10-19T07:41:30.093Z,101204.00
2018-10-19T07:43:58.402Z,101206.00
2018-10-19T07:46:27.209Z,101214.00
2018-10-19T07:48:55.361Z,101211.00
2018-10-19T07:51:23.647Z,101199.00
2018-10-19T07:53:51.785Z,101210.00
2018-10-19T07:56:20.601Z,101200.00
2018-10-19T07:58:48.831Z,101198.00
2018-10-19T08:01:17.113Z,101198.00
2018-10-19T08:03:45.382Z,101215.00
2018-10-19T08:06:13.641Z,101215.00
2018-10-19T08:08:41.990Z,101229.00
2018-10-19T08:11:10.301Z,101217.00
2018-10-19T08:13:38.395Z,101212.00
2018-10-19T08:16:06.503Z,101211.00
2018-10-19T08:18:39.160Z,101204.00
2018-10-19T08:21:07.882Z,101212.00
2018-10-19T08:23:36.248Z,101207.00
2018-10-19T08:26:04.696Z,101203.00
2018-10-19T08:28:33.269Z,101215.00
2018-10-19T08:31:01.468Z,101202.00
2018-10-19T08:33:29.657Z,101208.00
2018-10-19T08:35:57.935Z,101210.00
2018-10-19T08:38:26.751Z,101205.00
2018-10-19T08:40:55.057Z,101211.00
2018-10-19T08:43:23.201Z,101206.00
2018-10-19T08:45:51.605Z,101201.00
2018-10-19T08:48:19.817Z,101209.00
2018-10-19T08:50:48.076Z,101212.00
2018-10-19T08:53:16.408Z,101217.00
2018-10-19T08:55:44.484Z,101216.00
2018-10-19T08:58:19.422Z,101213.00
2018-10-19T09:00:47.511Z,101215.00
2018-10-19T09:03:15.860Z,101210.00
2018-10-19T09:05:44.045Z,101214.00
2018-10-19T09:08:12.275Z,101224.00
2018-10-19T09:10:40.688Z,101219.00
2018-10-19T09:13:08.812Z,101221.00
2018-10-19T09:15:36.900Z,101227.00
2018-10-19T09:18:12.155Z,101231.00
2018-10-19T09:20:40.483Z,101220.00
2018-10-19T09:23:08.782Z,101233.00
2018-10-19T09:25:37.019Z,101222.00
2018-10-19T09:28:05.343Z,101219.00
2018-10-19T09:30:33.543Z,101221.00
2018-10-19T09:33:01.849Z,101213.00
2018-10-19T09:35:30.209Z,101212.00
2018-10-19T09:37:58.483Z,101209.00
2018-10-19T09:40:26.831Z,101206.00
2018-10-19T09:42:55.238Z,101214.00
2018-10-19T09:45:23.519Z,101207.00
2018-10-19T09:47:51.747Z,101204.00
2018-10-19T09:50:19.933Z,101203.00
2018-10-19T09:52:48.183Z,101205.00
2018-10-19T09:55:16.553Z,101201.00
2018-10-19T09:57:44.962Z,101196.00
2018-10-19T10:00:18.761Z,101200.00
2018-10-19T10:02:47.771Z,101198.00
2018-10-19T10:05:16.010Z,101203.00
2018-10-19T10:07:44.308Z,101203.00
2018-10-19T10:10:12.671Z,101196.00
2018-10-19T10:12:41.183Z,101195.00
2018-10-19T10:15:09.327Z,101192.00
2018-10-19T10:17:37.560Z,101193.00
2018-10-19T10:20:06.979Z,101194.00
2018-10-19T10:22:35.187Z,101191.00
2018-10-19T10:25:03.487Z,101198.00
2018-10-19T10:27:31.561Z,101192.00
2018-10-19T10:29:59.930Z,101193.00
2018-10-19T10:32:28.156Z,101189.00
2018-10-19T10:34:56.289Z,101198.00
2018-10-19T10:37:24.542Z,101202.00
2018-10-19T10:39:52.674Z,101207.00
2018-10-19T10:42:20.924Z,101205.00
2018-10-19T10:44:49.268Z,101202.00
2018-10-19T10:47:17.445Z,101196.00
2018-10-19T10:49:45.518Z,101194.00
2018-10-19T10:52:13.730Z,101195.00
2018-10-19T10:54:41.992Z,101199.00
2018-10-19T10:57:10.219Z,101193.00
2018-10-19T10:59:38.399Z,101184.00
2018-10-19T11:02:06.670Z,101186.00
2018-10-19T11:04:34.859Z,101182.00
2018-10-19T11:07:03.206Z,101179.00
2018-10-19T11:09:31.340Z,101175.00
2018-10-19T11:11:59.577Z,101167.00
2018-10-19T11:14:27.761Z,101170.00
2018-10-19T11:16:55.963Z,101166.00
2018-10-19T11:19:24.394Z,101177.00
2018-10-19T11:21:52.773Z,101165.00
2018-10-19T11:24:20.900Z,101164.00
2018-10-19T11:26:49.232Z,101159.00
2018-10-19T11:29:17.558Z,101150.00
2018-10-19T11:31:46.310Z,101156.00
2018-10-19T11:34:14.527Z,101165.00
2018-10-19T11:36:45.506Z,101157.00
2018-10-19T11:39:13.684Z,101154.00
2018-10-19T11:41:42.030Z,101162.00
2018-10-19T11:44:10.172Z,101150.00
2018-10-19T11:46:38.308Z,101156.00
2018-10-19T11:49:06.635Z,101156.00
2018-10-19T11:51:34.899Z,101137.00
2018-10-19T11:54:03.369Z,101136.00
2018-10-19T11:56:31.499Z,101146.00
2018-10-19T11:58:59.657Z,101140.00
2018-10-19T12:01:28.102Z,101136.00
2018-10-19T12:03:56.336Z,101130.00
2018-10-19T12:06:24.710Z,101124.00
2018-10-19T12:08:52.869Z,101116.00
2018-10-19T12:11:21.636Z,101124.00
2018-10-19T12:13:49.955Z,101123.00
2018-10-19T12:16:18.359Z,101116.00
2018-10-19T12:18:46.623Z,101112.00
2018-10-19T12:21:15.081Z,101102.00
2018-10-19T12:23:43.235Z,101103.00
2018-10-19T12:26:11.534Z,101100.00
2018-10-19T12:28:39.622Z,101101.00
2018-10-19T12:31:08.412Z,101104.00
2018-10-19T12:33:36.590Z,101090.00
2018-10-19T12:36:05.263Z,101099.00
2018-10-19T12:38:33.440Z,101102.00
2018-10-19T12:41:01.744Z,101103.00
2018-10-19T12:43:29.903Z,101103.00
2018-10-19T12:47:43.209Z,101102.00
2018-10-19T12:50:11.750Z,101092.00
2018-10-19T12:52:39.933Z,101089.00
2018-10-19T12:55:08.820Z,101087.00
2018-10-19T12:57:36.996Z,101083.00
2018-10-19T13:00:07.377Z,101082.00
2018-10-19T13:02:35.496Z,101090.00
2018-10-19T13:05:03.784Z,101078.00
2018-10-19T13:07:31.974Z,101088.00
2018-10-19T13:10:00.419Z,101086.00
2018-10-19T13:12:28.550Z,101086.00
2018-10-19T13:14:56.825Z,101082.00
2018-10-19T13:17:25.048Z,101078.00
2018-10-19T13:19:53.369Z,101077.00
2018-10-19T13:22:21.591Z,101072.00
2018-10-19T13:24:49.826Z,101080.00
2018-10-19T13:27:18.025Z,101072.00
2018-10-19T13:29:46.256Z,101076.00
2018-10-19T13:32:14.529Z,101077.00
2018-10-19T13:34:42.769Z,101073.00
2018-10-19T13:37:10.951Z,101070.00
2018-10-19T13:39:39.139Z,101068.00
2018-10-19T13:42:07.873Z,101073.00
2018-10-19T13:44:36.064Z,101077.00
2018-10-19T13:47:04.955Z,101077.00
2018-10-19T13:49:33.307Z,101072.00
2018-10-19T13:52:01.753Z,101072.00
2018-10-19T13:54:30.010Z,101067.00
2018-10-19T13:56:59.277Z,101070.00
2018-10-19T13:59:27.912Z,101066.00
2018-10-19T14:01:56.613Z,101067.00
2018-10-19T14:04:25.484Z,101066.00
2018-10-19T14:06:54.075Z,101076.00
2018-10-19T14:09:22.827Z,101067.00
2018-10-19T14:11:52.156Z,101066.00
2018-10-19T14:14:30.473Z,101077.00
2018-10-19T14:16:59.706Z,101084.00
2018-10-19T14:19:28.238Z,101079.00
2018-10-19T14:21:57.108Z,101084.00
2018-10-19T14:24:25.907Z,101082.00
2018-10-19T14:26:54.590Z,101081.00
2018-10-19T14:29:22.997Z,101082.00
2018-10-19T14:31:52.420Z,101082.00
2018-10-19T14:34:21.170Z,101083.00
2018-10-19T14:36:50.270Z,101082.00
2018-10-19T14:39:19.378Z,101074.00
2018-10-19T14:41:48.057Z,101074.00
2018-10-19T14:44:16.903Z,101086.00
2018-10-19T14:46:57.297Z,101087.00
2018-10-19T14:49:27.128Z,101087.00
2018-10-19T14:51:57.002Z,101084.00
2018-10-19T14:54:25.881Z,101081.00
2018-10-19T14:56:54.754Z,101075.00
2018-10-19T14:59:23.506Z,101095.00
2018-10-19T15:01:52.701Z,101079.00
2018-10-19T15:04:21.710Z,101080.00
2018-10-19T15:06:50.190Z,101086.00
2018-10-19T15:09:18.669Z,101075.00
2018-10-19T15:11:47.440Z,101084.00
2018-10-19T15:14:15.729Z,101085.00
2018-10-19T15:16:44.224Z,101077.00
2018-10-19T15:19:12.889Z,101070.00
2018-10-19T15:21:41.553Z,101075.00
2018-10-19T15:24:10.456Z,101071.00
2018-10-19T15:26:39.135Z,101073.00
2018-10-19T15:29:07.721Z,101074.00
2018-10-19T15:31:36.639Z,101072.00
2018-10-19T15:34:05.490Z,101069.00
2018-10-19T15:36:34.122Z,101068.00
2018-10-19T15:39:02.713Z,101069.00
2018-10-19T15:41:31.256Z,101072.00
2018-10-19T15:43:59.979Z,101062.00
2018-10-19T15:46:28.540Z,101062.00
2018-10-19T15:48:57.248Z,101059.00
2018-10-19T15:51:26.184Z,101067.00
2018-10-19T15:53:54.591Z,101065.00
2018-10-19T15:56:23.956Z,101065.00
2018-10-19T15:58:52.484Z,101066.00
2018-10-19T16:01:21.063Z,101065.00
2018-10-19T16:03:49.643Z,101062.00
2018-10-19T16:06:18.538Z,101065.00
2018-10-19T16:08:47.041Z,101060.00
2018-10-19T16:11:15.976Z,101069.00
2018-10-19T16:13:44.541Z,101069.00
2018-10-19T16:16:13.106Z,101063.00
2018-10-19T16:18:45.131Z,101067.00
2018-10-19T16:21:14.866Z,101074.00
2018-10-19T16:23:43.179Z,101073.00
2018-10-19T16:26:11.612Z,101080.00
2018-10-19T16:28:40.209Z,101078.00
2018-10-19T16:31:08.985Z,101079.00
2018-10-19T16:33:37.485Z,101089.00
2018-10-19T16:36:06.485Z,101093.00
2018-10-19T16:38:35.221Z,101081.00
2018-10-19T16:41:04.772Z,101083.00
2018-10-19T16:43:33.643Z,101095.00
2018-10-19T16:46:02.297Z,101092.00
2018-10-19T16:48:31.018Z,101100.00
2018-10-19T16:51:00.443Z,101102.00
2018-10-19T16:53:29.178Z,101104.00
2018-10-19T16:55:57.805Z,101113.00
2018-10-19T16:58:26.604Z,101115.00
2018-10-19T17:00:55.025Z,101117.00
2018-10-19T17:03:23.849Z,101130.00
2018-10-19T17:05:54.019Z,101051.00
2018-10-19T17:08:22.712Z,101126.00
2018-10-19T17:10:51.913Z,101130.00
2018-10-19T17:13:20.605Z,101131.00
2018-10-19T17:15:48.967Z,101122.00
2018-10-19T17:18:17.637Z,101130.00
2018-10-19T17:20:46.725Z,101137.00
2018-10-19T17:23:15.245Z,101140.00
2018-10-19T17:25:44.147Z,101148.00
2018-10-19T17:28:12.719Z,101140.00
2018-10-19T17:30:41.363Z,101138.00
2018-10-19T17:33:11.007Z,101144.00
2018-10-19T17:35:40.023Z,101153.00
2018-10-19T17:38:08.478Z,101160.00
2018-10-19T17:40:37.075Z,101155.00
2018-10-19T17:43:06.113Z,101166.00
2018-10-19T17:45:34.366Z,101165.00
2018-10-19T17:48:02.840Z,101164.00
2018-10-19T17:50:31.944Z,101180.00
2018-10-19T17:53:00.906Z,101177.00
2018-10-19T17:55:29.308Z,101168.00
2018-10-19T17:57:57.697Z,101176.00
2018-10-19T18:00:26.340Z,101173.00
2018-10-19T18:02:54.667Z,101178.00
2018-10-19T18:05:23.080Z,101177.00
2018-10-19T18:07:51.758Z,101185.00
2018-10-19T18:10:20.175Z,101182.00
2018-10-19T18:12:48.656Z,101184.00
2018-10-19T18:15:17.260Z,101189.00
2018-10-19T18:17:45.842Z,101194.00
2018-10-19T18:20:14.707Z,101205.00
2018-10-19T18:22:44.350Z,101208.00
2018-10-19T18:25:16.319Z,101209.00
2018-10-19T18:27:45.048Z,101204.00
2018-10-19T18:30:13.632Z,101212.00
2018-10-19T18:32:42.125Z,101212.00
2018-10-19T18:35:11.679Z,101214.00
2018-10-19T18:37:40.550Z,101217.00
2018-10-19T18:40:10.812Z,101219.00
2018-10-19T18:42:39.342Z,101225.00
2018-10-19T18:45:08.801Z,101231.00
2018-10-19T18:47:37.722Z,101221.00
2018-10-19T18:50:07.209Z,101265.00
2018-10-19T18:52:35.562Z,101226.00
2018-10-19T18:55:04.119Z,101222.00
2018-10-19T18:57:32.433Z,101235.00
2018-10-19T19:00:01.220Z,101234.00
2018-10-19T19:02:29.594Z,101234.00
2018-10-19T19:04:58.492Z,101231.00
2018-10-19T19:07:26.836Z,101239.00
2018-10-19T19:10:00.877Z,101278.00
2018-10-19T19:12:29.215Z,101249.00
2018-10-19T19:14:57.768Z,101250.00
2018-10-19T19:17:26.500Z,101251.00
2018-10-19T19:20:00.475Z,101248.00
2018-10-19T19:22:29.564Z,101247.00
2018-10-19T19:25:03.451Z,101258.00
2018-10-19T19:27:31.685Z,101260.00
2018-10-19T19:30:00.016Z,101253.00
2018-10-19T19:32:28.470Z,101259.00
2018-10-19T19:34:56.877Z,101265.00
2018-10-19T19:37:25.354Z,101267.00
2018-10-19T19:39:54.000Z,101274.00
2018-10-19T19:42:27.843Z,101272.00
2018-10-19T19:44:56.232Z,101271.00
2018-10-19T19:47:30.033Z,101273.00
2018-10-19T19:50:02.589Z,101272.00
2018-10-19T19:52:31.015Z,101283.00
2018-10-19T19:54:59.429Z,101275.00
2018-10-19T19:57:28.134Z,101283.00
2018-10-19T19:59:56.521Z,101288.00
2018-10-19T20:02:25.091Z,101288.00
2018-10-19T20:04:53.376Z,101277.00
2018-10-19T20:07:21.676Z,101291.00
2018-10-19T20:09:50.939Z,101291.00
2018-10-19T20:12:19.773Z,101288.00
2018-10-19T20:14:48.145Z,101285.00
2018-10-19T20:17:16.653Z,101286.00
2018-10-19T20:19:44.995Z,101290.00
2018-10-19T20:22:13.393Z,101288.00
2018-10-19T20:24:41.727Z,101292.00
2018-10-19T20:27:10.162Z,101293.00
2018-10-19T20:29:38.436Z,101294.00
2018-10-19T20:32:06.918Z,101297.00
2018-10-19T20:34:35.418Z,101289.00
2018-10-19T20:37:03.928Z,101293.00
2018-10-19T20:39:32.198Z,101288.00
2018-10-19T20:42:00.419Z,101300.00
2018-10-19T20:44:28.670Z,101319.00
2018-10-19T20:46:57.124Z,101297.00
2018-10-19T20:49:26.181Z,101294.00
2018-10-19T20:51:54.449Z,101295.00
2018-10-19T20:54:23.726Z,101297.00
2018-10-19T20:56:52.111Z,101298.00
2018-10-19T20:59:20.409Z,101298.00
2018-10-19T21:01:49.201Z,101298.00
2018-10-19T21:04:17.666Z,101297.00
2018-10-19T21:06:46.172Z,101286.00
2018-10-19T21:09:14.485Z,101289.00
2018-10-19T21:11:42.992Z,101285.00
2018-10-19T21:14:11.392Z,101285.00
2018-10-19T21:16:39.548Z,101288.00
2018-10-19T21:19:08.440Z,101285.00
2018-10-19T21:21:36.721Z,101290.00
2018-10-19T21:24:05.339Z,101284.00
2018-10-19T21:26:33.577Z,101290.00
2018-10-19T21:29:01.812Z,101290.00
2018-10-19T21:31:30.071Z,101298.00
2018-10-19T21:33:58.378Z,101285.00
2018-10-19T21:36:26.702Z,101294.00
2018-10-19T21:38:55.083Z,101299.00
2018-10-19T21:41:23.352Z,101299.00
2018-10-19T21:43:51.670Z,101314.00
2018-10-19T21:46:19.870Z,101303.00
2018-10-19T21:48:48.164Z,101303.00
2018-10-19T21:51:16.437Z,101306.00
2018-10-19T21:53:44.826Z,101300.00
2018-10-19T21:56:13.489Z,101297.00
2018-10-19T21:58:41.682Z,101304.00
2018-10-19T22:01:10.035Z,101307.00
2018-10-19T22:03:38.417Z,101306.00
2018-10-19T22:06:06.720Z,101298.00
2018-10-19T22:08:34.882Z,101306.00
2018-10-19T22:11:04.172Z,101305.00
2018-10-19T22:13:32.374Z,101305.00
2018-10-19T22:16:00.856Z,101306.00
2018-10-19T22:18:29.015Z,101310.00
2018-10-19T22:20:57.380Z,101305.00
2018-10-19T22:23:25.964Z,101302.00
2018-10-19T22:25:54.217Z,101303.00
2018-10-19T22:28:22.585Z,101303.00
2018-10-19T22:30:50.824Z,101297.00
2018-10-19T22:33:19.083Z,101298.00
2018-10-19T22:35:47.293Z,101294.00
2018-10-19T22:38:15.582Z,101298.00
2018-10-19T22:40:43.773Z,101295.00
2018-10-19T22:43:12.190Z,101301.00
2018-10-19T22:45:40.412Z,101293.00
2018-10-19T22:48:08.674Z,101300.00
2018-10-19T22:50:36.836Z,101307.00
2018-10-19T22:53:05.395Z,101298.00
2018-10-19T22:55:33.584Z,101305.00
2018-10-19T22:58:01.911Z,101304.00
2018-10-19T23:00:30.258Z,101302.00
2018-10-19T23:02:58.686Z,101302.00
2018-10-19T23:05:26.951Z,101302.00
2018-10-19T23:07:55.225Z,101306.00
2018-10-19T23:10:23.427Z,101306.00
2018-10-19T23:12:51.672Z,101314.00
2018-10-19T23:15:19.848Z,101317.00
2018-10-19T23:17:48.038Z,101316.00
2018-10-19T23:20:16.192Z,101328.00
2018-10-19T23:22:44.319Z,101321.00
2018-10-19T23:25:12.547Z,101333.00
2018-10-19T23:27:40.735Z,101330.00
2018-10-19T23:30:08.932Z,101330.00
2018-10-19T23:32:37.097Z,101334.00
2018-10-19T23:35:06.835Z,101335.00
2018-10-19T23:37:35.210Z,101335.00
2018-10-19T23:40:03.569Z,101330.00
2018-10-19T23:42:31.817Z,101324.00
2018-10-19T23:45:00.062Z,101342.00
2018-10-19T23:47:28.214Z,101342.00
2018-10-19T23:49:56.368Z,101339.00
2018-10-19T23:52:27.574Z,101342.00
2018-10-19T23:54:55.765Z,101344.00
2018-10-19T23:57:24.092Z,101352.00
2018-10-19T23:59:52.241Z,101358.00
